sensor_id;sensor_type;location;lat;lon;timestamp;P1;durP1;ratioP1;P2;durP2;ratioP2
17858;SDS011;35426;30.698;104.050;2022-10-16T00:00:02;25.17;;;12.33;;
17858;SDS011;35426;30.698;104.050;2022-10-16T00:02:37;29.80;;;12.83;;
17858;SDS011;35426;30.698;104.050;2022-10-16T00:05:11;35.53;;;15.03;;
17858;SDS011;35426;30.698;104.050;2022-10-16T00:07:46;35.70;;;15.53;;
17858;SDS011;35426;30.698;104.050;2022-10-16T00:10:21;37.83;;;14.97;;
17858;SDS011;35426;30.698;104.050;2022-10-16T00:12:55;36.33;;;15.43;;
17858;SDS011;35426;30.698;104.050;2022-10-16T00:15:32;31.43;;;14.83;;
17858;SDS011;35426;30.698;104.050;2022-10-16T00:18:08;35.17;;;14.80;;
17858;SDS011;35426;30.698;104.050;2022-10-16T00:20:44;33.97;;;14.30;;
17858;SDS011;35426;30.698;104.050;2022-10-16T00:23:18;32.80;;;13.33;;
17858;SDS011;35426;30.698;104.050;2022-10-16T00:25:56;33.20;;;14.50;;
17858;SDS011;35426;30.698;104.050;2022-10-16T00:28:32;33.23;;;13.97;;
17858;SDS011;35426;30.698;104.050;2022-10-16T00:31:10;30.47;;;13.23;;
17858;SDS011;35426;30.698;104.050;2022-10-16T00:33:45;33.17;;;12.43;;
17858;SDS011;35426;30.698;104.050;2022-10-16T00:36:21;29.33;;;14.60;;
17858;SDS011;35426;30.698;104.050;2022-10-16T00:38:58;33.47;;;13.97;;
17858;SDS011;35426;30.698;104.050;2022-10-16T00:41:33;32.97;;;12.80;;
17858;SDS011;35426;30.698;104.050;2022-10-16T00:47:22;31.63;;;13.27;;
17858;SDS011;35426;30.698;104.050;2022-10-16T00:50:04;34.00;;;12.20;;
17858;SDS011;35426;30.698;104.050;2022-10-16T00:52:43;32.10;;;13.73;;
17858;SDS011;35426;30.698;104.050;2022-10-16T00:55:20;31.67;;;11.53;;
17858;SDS011;35426;30.698;104.050;2022-10-16T00:57:57;28.93;;;11.87;;
17858;SDS011;35426;30.698;104.050;2022-10-16T01:00:32;24.77;;;12.13;;
17858;SDS011;35426;30.698;104.050;2022-10-16T01:06:07;31.70;;;11.43;;
17858;SDS011;35426;30.698;104.050;2022-10-16T01:11:55;29.87;;;11.37;;
17858;SDS011;35426;30.698;104.050;2022-10-16T01:14:39;29.27;;;11.37;;
17858;SDS011;35426;30.698;104.050;2022-10-16T01:17:18;28.87;;;11.27;;
17858;SDS011;35426;30.698;104.050;2022-10-16T01:20:07;28.70;;;11.90;;
17858;SDS011;35426;30.698;104.050;2022-10-16T01:22:47;27.20;;;11.70;;
17858;SDS011;35426;30.698;104.050;2022-10-16T01:25:32;25.10;;;11.50;;
17858;SDS011;35426;30.698;104.050;2022-10-16T01:28:25;27.05;;;11.57;;
17858;SDS011;35426;30.698;104.050;2022-10-16T01:31:05;29.08;;;11.80;;
17858;SDS011;35426;30.698;104.050;2022-10-16T01:33:43;29.85;;;11.15;;
17858;SDS011;35426;30.698;104.050;2022-10-16T01:36:26;26.35;;;11.40;;
17858;SDS011;35426;30.698;104.050;2022-10-16T01:39:08;28.88;;;12.02;;
17858;SDS011;35426;30.698;104.050;2022-10-16T01:41:46;27.63;;;11.55;;
17858;SDS011;35426;30.698;104.050;2022-10-16T01:44:31;27.30;;;11.27;;
17858;SDS011;35426;30.698;104.050;2022-10-16T01:47:08;30.08;;;11.73;;
17858;SDS011;35426;30.698;104.050;2022-10-16T01:49:45;27.17;;;10.90;;
17858;SDS011;35426;30.698;104.050;2022-10-16T01:52:26;24.88;;;10.35;;
17858;SDS011;35426;30.698;104.050;2022-10-16T01:55:05;27.65;;;10.85;;
17858;SDS011;35426;30.698;104.050;2022-10-16T01:57:46;29.95;;;11.30;;
17858;SDS011;35426;30.698;104.050;2022-10-16T02:00:28;30.05;;;10.65;;
17858;SDS011;35426;30.698;104.050;2022-10-16T02:03:07;27.00;;;11.10;;
17858;SDS011;35426;30.698;104.050;2022-10-16T02:05:46;26.35;;;10.55;;
17858;SDS011;35426;30.698;104.050;2022-10-16T02:08:27;22.20;;;11.02;;
17858;SDS011;35426;30.698;104.050;2022-10-16T02:11:02;30.80;;;10.77;;
17858;SDS011;35426;30.698;104.050;2022-10-16T02:13:38;25.45;;;9.85;;
17858;SDS011;35426;30.698;104.050;2022-10-16T02:16:31;27.20;;;10.80;;
17858;SDS011;35426;30.698;104.050;2022-10-16T02:19:12;22.60;;;10.93;;
17858;SDS011;35426;30.698;104.050;2022-10-16T02:21:50;25.63;;;10.35;;
17858;SDS011;35426;30.698;104.050;2022-10-16T02:24:29;23.85;;;9.98;;
17858;SDS011;35426;30.698;104.050;2022-10-16T02:27:15;25.38;;;9.50;;
17858;SDS011;35426;30.698;104.050;2022-10-16T02:29:56;22.45;;;10.65;;
17858;SDS011;35426;30.698;104.050;2022-10-16T02:32:43;26.33;;;10.38;;
17858;SDS011;35426;30.698;104.050;2022-10-16T02:35:21;28.38;;;9.68;;
17858;SDS011;35426;30.698;104.050;2022-10-16T02:38:01;25.42;;;10.07;;
17858;SDS011;35426;30.698;104.050;2022-10-16T02:40:43;28.70;;;10.60;;
17858;SDS011;35426;30.698;104.050;2022-10-16T02:43:20;25.40;;;10.13;;
17858;SDS011;35426;30.698;104.050;2022-10-16T02:45:57;27.98;;;10.60;;
17858;SDS011;35426;30.698;104.050;2022-10-16T02:48:35;24.40;;;10.43;;
17858;SDS011;35426;30.698;104.050;2022-10-16T02:51:11;26.48;;;9.95;;
17858;SDS011;35426;30.698;104.050;2022-10-16T02:53:51;25.02;;;9.73;;
17858;SDS011;35426;30.698;104.050;2022-10-16T02:56:28;32.30;;;10.02;;
17858;SDS011;35426;30.698;104.050;2022-10-16T02:59:03;21.15;;;9.18;;
17858;SDS011;35426;30.698;104.050;2022-10-16T03:01:39;22.73;;;8.95;;
17858;SDS011;35426;30.698;104.050;2022-10-16T03:04:17;26.67;;;8.77;;
17858;SDS011;35426;30.698;104.050;2022-10-16T03:06:54;24.75;;;8.55;;
17858;SDS011;35426;30.698;104.050;2022-10-16T03:09:34;24.27;;;8.52;;
17858;SDS011;35426;30.698;104.050;2022-10-16T03:12:14;23.67;;;8.45;;
17858;SDS011;35426;30.698;104.050;2022-10-16T03:14:53;27.50;;;8.90;;
17858;SDS011;35426;30.698;104.050;2022-10-16T03:17:29;22.00;;;8.07;;
17858;SDS011;35426;30.698;104.050;2022-10-16T03:20:10;27.23;;;8.65;;
17858;SDS011;35426;30.698;104.050;2022-10-16T03:22:46;24.35;;;8.25;;
17858;SDS011;35426;30.698;104.050;2022-10-16T03:25:25;23.90;;;8.60;;
17858;SDS011;35426;30.698;104.050;2022-10-16T03:28:00;28.58;;;9.23;;
17858;SDS011;35426;30.698;104.050;2022-10-16T03:30:39;27.20;;;8.95;;
17858;SDS011;35426;30.698;104.050;2022-10-16T03:33:17;27.08;;;9.35;;
17858;SDS011;35426;30.698;104.050;2022-10-16T03:36:00;22.80;;;8.70;;
17858;SDS011;35426;30.698;104.050;2022-10-16T03:38:38;23.42;;;9.68;;
17858;SDS011;35426;30.698;104.050;2022-10-16T03:41:15;31.30;;;9.70;;
17858;SDS011;35426;30.698;104.050;2022-10-16T03:43:51;28.20;;;10.23;;
17858;SDS011;35426;30.698;104.050;2022-10-16T03:46:28;29.95;;;11.00;;
17858;SDS011;35426;30.698;104.050;2022-10-16T03:49:03;31.10;;;11.00;;
17858;SDS011;35426;30.698;104.050;2022-10-16T03:51:42;27.33;;;10.48;;
17858;SDS011;35426;30.698;104.050;2022-10-16T03:54:17;37.30;;;10.98;;
17858;SDS011;35426;30.698;104.050;2022-10-16T03:56:57;32.65;;;10.70;;
17858;SDS011;35426;30.698;104.050;2022-10-16T03:59:32;35.85;;;10.27;;
17858;SDS011;35426;30.698;104.050;2022-10-16T04:02:08;29.80;;;10.43;;
17858;SDS011;35426;30.698;104.050;2022-10-16T04:04:42;27.00;;;10.57;;
17858;SDS011;35426;30.698;104.050;2022-10-16T04:07:23;27.65;;;10.25;;
17858;SDS011;35426;30.698;104.050;2022-10-16T04:10:04;41.42;;;13.50;;
17858;SDS011;35426;30.698;104.050;2022-10-16T04:12:42;32.50;;;9.60;;
17858;SDS011;35426;30.698;104.050;2022-10-16T04:15:25;27.20;;;10.33;;
17858;SDS011;35426;30.698;104.050;2022-10-16T04:18:08;28.77;;;10.27;;
17858;SDS011;35426;30.698;104.050;2022-10-16T04:20:51;29.83;;;10.13;;
17858;SDS011;35426;30.698;104.050;2022-10-16T04:23:33;27.37;;;9.90;;
17858;SDS011;35426;30.698;104.050;2022-10-16T04:26:08;36.90;;;9.60;;
17858;SDS011;35426;30.698;104.050;2022-10-16T04:28:47;25.10;;;8.57;;
17858;SDS011;35426;30.698;104.050;2022-10-16T04:31:28;23.17;;;7.77;;
17858;SDS011;35426;30.698;104.050;2022-10-16T04:34:09;23.07;;;7.67;;
17858;SDS011;35426;30.698;104.050;2022-10-16T04:36:47;20.10;;;8.13;;
17858;SDS011;35426;30.698;104.050;2022-10-16T04:39:29;24.50;;;8.50;;
17858;SDS011;35426;30.698;104.050;2022-10-16T04:42:05;31.07;;;10.03;;
17858;SDS011;35426;30.698;104.050;2022-10-16T04:44:45;28.83;;;10.57;;
17858;SDS011;35426;30.698;104.050;2022-10-16T04:47:28;30.13;;;10.07;;
17858;SDS011;35426;30.698;104.050;2022-10-16T04:50:08;31.50;;;9.97;;
17858;SDS011;35426;30.698;104.050;2022-10-16T04:53:01;26.60;;;10.07;;
17858;SDS011;35426;30.698;104.050;2022-10-16T04:55:47;30.20;;;9.83;;
17858;SDS011;35426;30.698;104.050;2022-10-16T04:58:28;22.57;;;8.97;;
17858;SDS011;35426;30.698;104.050;2022-10-16T05:01:06;30.57;;;9.43;;
17858;SDS011;35426;30.698;104.050;2022-10-16T05:03:41;27.47;;;9.93;;
17858;SDS011;35426;30.698;104.050;2022-10-16T05:06:20;31.37;;;9.27;;
17858;SDS011;35426;30.698;104.050;2022-10-16T05:09:27;31.07;;;10.43;;
17858;SDS011;35426;30.698;104.050;2022-10-16T05:12:12;23.30;;;9.20;;
17858;SDS011;35426;30.698;104.050;2022-10-16T05:14:56;27.53;;;9.20;;
17858;SDS011;35426;30.698;104.050;2022-10-16T05:17:32;26.47;;;8.90;;
17858;SDS011;35426;30.698;104.050;2022-10-16T05:20:12;21.40;;;8.93;;
17858;SDS011;35426;30.698;104.050;2022-10-16T05:22:56;25.57;;;9.00;;
17858;SDS011;35426;30.698;104.050;2022-10-16T05:25:33;26.70;;;9.33;;
17858;SDS011;35426;30.698;104.050;2022-10-16T05:28:19;34.27;;;9.30;;
17858;SDS011;35426;30.698;104.050;2022-10-16T05:30:58;34.13;;;8.67;;
17858;SDS011;35426;30.698;104.050;2022-10-16T05:33:45;20.33;;;9.10;;
17858;SDS011;35426;30.698;104.050;2022-10-16T05:36:23;34.00;;;10.93;;
17858;SDS011;35426;30.698;104.050;2022-10-16T05:39:08;25.10;;;7.77;;
17858;SDS011;35426;30.698;104.050;2022-10-16T05:42:01;22.63;;;8.27;;
17858;SDS011;35426;30.698;104.050;2022-10-16T05:44:49;28.70;;;9.43;;
17858;SDS011;35426;30.698;104.050;2022-10-16T05:47:32;36.43;;;9.73;;
17858;SDS011;35426;30.698;104.050;2022-10-16T05:50:12;27.93;;;9.33;;
17858;SDS011;35426;30.698;104.050;2022-10-16T05:52:51;25.17;;;9.50;;
17858;SDS011;35426;30.698;104.050;2022-10-16T05:55:27;23.27;;;8.53;;
17858;SDS011;35426;30.698;104.050;2022-10-16T05:58:02;20.50;;;8.57;;
17858;SDS011;35426;30.698;104.050;2022-10-16T06:00:44;27.67;;;9.30;;
17858;SDS011;35426;30.698;104.050;2022-10-16T06:03:28;26.10;;;9.07;;
17858;SDS011;35426;30.698;104.050;2022-10-16T06:06:08;24.73;;;8.63;;
17858;SDS011;35426;30.698;104.050;2022-10-16T06:08:46;26.97;;;9.73;;
17858;SDS011;35426;30.698;104.050;2022-10-16T06:11:25;23.90;;;8.57;;
17858;SDS011;35426;30.698;104.050;2022-10-16T06:14:03;28.80;;;8.23;;
17858;SDS011;35426;30.698;104.050;2022-10-16T06:16:49;28.30;;;9.27;;
17858;SDS011;35426;30.698;104.050;2022-10-16T06:19:29;29.43;;;8.90;;
17858;SDS011;35426;30.698;104.050;2022-10-16T06:22:07;24.20;;;8.83;;
17858;SDS011;35426;30.698;104.050;2022-10-16T06:24:44;29.93;;;9.93;;
17858;SDS011;35426;30.698;104.050;2022-10-16T06:27:19;30.13;;;9.70;;
17858;SDS011;35426;30.698;104.050;2022-10-16T06:29:59;29.97;;;9.03;;
17858;SDS011;35426;30.698;104.050;2022-10-16T06:32:45;27.20;;;9.23;;
17858;SDS011;35426;30.698;104.050;2022-10-16T06:38:21;22.33;;;8.73;;
17858;SDS011;35426;30.698;104.050;2022-10-16T06:41:02;29.30;;;8.73;;
17858;SDS011;35426;30.698;104.050;2022-10-16T06:43:43;24.10;;;8.80;;
17858;SDS011;35426;30.698;104.050;2022-10-16T06:46:22;30.80;;;9.40;;
17858;SDS011;35426;30.698;104.050;2022-10-16T06:49:02;26.60;;;9.30;;
17858;SDS011;35426;30.698;104.050;2022-10-16T06:51:37;24.83;;;8.87;;
17858;SDS011;35426;30.698;104.050;2022-10-16T06:54:14;28.77;;;10.00;;
17858;SDS011;35426;30.698;104.050;2022-10-16T06:56:53;31.20;;;9.67;;
17858;SDS011;35426;30.698;104.050;2022-10-16T06:59:29;31.40;;;9.37;;
17858;SDS011;35426;30.698;104.050;2022-10-16T07:02:08;25.80;;;9.03;;
17858;SDS011;35426;30.698;104.050;2022-10-16T07:04:57;25.30;;;8.97;;
17858;SDS011;35426;30.698;104.050;2022-10-16T07:07:33;32.43;;;9.60;;
17858;SDS011;35426;30.698;104.050;2022-10-16T07:10:10;22.17;;;9.43;;
17858;SDS011;35426;30.698;104.050;2022-10-16T07:12:51;25.30;;;9.00;;
17858;SDS011;35426;30.698;104.050;2022-10-16T07:15:32;30.80;;;10.07;;
17858;SDS011;35426;30.698;104.050;2022-10-16T07:18:14;27.53;;;9.00;;
17858;SDS011;35426;30.698;104.050;2022-10-16T07:21:02;27.40;;;9.53;;
17858;SDS011;35426;30.698;104.050;2022-10-16T07:23:38;25.97;;;9.90;;
17858;SDS011;35426;30.698;104.050;2022-10-16T07:26:23;26.07;;;9.63;;
17858;SDS011;35426;30.698;104.050;2022-10-16T07:29:12;25.13;;;9.90;;
17858;SDS011;35426;30.698;104.050;2022-10-16T07:31:56;24.00;;;9.97;;
17858;SDS011;35426;30.698;104.050;2022-10-16T07:34:36;27.33;;;9.50;;
17858;SDS011;35426;30.698;104.050;2022-10-16T07:37:16;27.37;;;8.90;;
17858;SDS011;35426;30.698;104.050;2022-10-16T07:39:59;28.77;;;10.60;;
17858;SDS011;35426;30.698;104.050;2022-10-16T07:42:38;32.23;;;10.63;;
17858;SDS011;35426;30.698;104.050;2022-10-16T07:45:16;26.73;;;9.73;;
17858;SDS011;35426;30.698;104.050;2022-10-16T07:47:53;23.53;;;9.03;;
17858;SDS011;35426;30.698;104.050;2022-10-16T07:50:33;24.03;;;10.17;;
17858;SDS011;35426;30.698;104.050;2022-10-16T07:53:16;25.90;;;9.13;;
17858;SDS011;35426;30.698;104.050;2022-10-16T07:55:57;24.83;;;9.53;;
17858;SDS011;35426;30.698;104.050;2022-10-16T07:58:39;28.87;;;9.23;;
17858;SDS011;35426;30.698;104.050;2022-10-16T08:01:15;28.57;;;10.03;;
17858;SDS011;35426;30.698;104.050;2022-10-16T08:06:44;30.57;;;10.10;;
17858;SDS011;35426;30.698;104.050;2022-10-16T08:09:24;31.07;;;10.07;;
17858;SDS011;35426;30.698;104.050;2022-10-16T08:12:03;25.07;;;9.30;;
17858;SDS011;35426;30.698;104.050;2022-10-16T08:14:41;27.40;;;10.20;;
17858;SDS011;35426;30.698;104.050;2022-10-16T08:17:16;21.93;;;9.50;;
17858;SDS011;35426;30.698;104.050;2022-10-16T08:19:56;32.23;;;10.30;;
17858;SDS011;35426;30.698;104.050;2022-10-16T08:22:33;33.10;;;10.87;;
17858;SDS011;35426;30.698;104.050;2022-10-16T08:25:17;26.53;;;9.40;;
17858;SDS011;35426;30.698;104.050;2022-10-16T08:27:59;25.03;;;9.17;;
17858;SDS011;35426;30.698;104.050;2022-10-16T08:30:47;31.90;;;8.83;;
17858;SDS011;35426;30.698;104.050;2022-10-16T08:33:26;30.50;;;9.20;;
17858;SDS011;35426;30.698;104.050;2022-10-16T08:36:02;31.93;;;9.30;;
17858;SDS011;35426;30.698;104.050;2022-10-16T08:38:46;31.60;;;9.83;;
17858;SDS011;35426;30.698;104.050;2022-10-16T08:41:33;27.60;;;8.70;;
17858;SDS011;35426;30.698;104.050;2022-10-16T08:44:41;25.80;;;9.67;;
17858;SDS011;35426;30.698;104.050;2022-10-16T08:47:46;25.93;;;9.70;;
17858;SDS011;35426;30.698;104.050;2022-10-16T08:50:36;32.07;;;9.93;;
17858;SDS011;35426;30.698;104.050;2022-10-16T08:53:15;32.83;;;10.20;;
17858;SDS011;35426;30.698;104.050;2022-10-16T08:55:54;30.40;;;10.10;;
17858;SDS011;35426;30.698;104.050;2022-10-16T08:58:38;35.27;;;9.47;;
17858;SDS011;35426;30.698;104.050;2022-10-16T09:01:17;25.33;;;9.17;;
17858;SDS011;35426;30.698;104.050;2022-10-16T09:04:01;26.47;;;8.80;;
17858;SDS011;35426;30.698;104.050;2022-10-16T09:06:55;25.73;;;9.10;;
17858;SDS011;35426;30.698;104.050;2022-10-16T09:09:51;27.63;;;9.70;;
17858;SDS011;35426;30.698;104.050;2022-10-16T09:12:40;26.00;;;8.83;;
17858;SDS011;35426;30.698;104.050;2022-10-16T09:15:31;23.27;;;9.13;;
17858;SDS011;35426;30.698;104.050;2022-10-16T09:18:16;25.57;;;8.93;;
17858;SDS011;35426;30.698;104.050;2022-10-16T09:21:01;34.53;;;9.63;;
17858;SDS011;35426;30.698;104.050;2022-10-16T09:23:58;24.03;;;9.17;;
17858;SDS011;35426;30.698;104.050;2022-10-16T09:26:43;31.80;;;9.60;;
17858;SDS011;35426;30.698;104.050;2022-10-16T09:29:21;26.97;;;9.43;;
17858;SDS011;35426;30.698;104.050;2022-10-16T09:32:05;23.73;;;9.27;;
17858;SDS011;35426;30.698;104.050;2022-10-16T09:34:54;30.90;;;10.20;;
17858;SDS011;35426;30.698;104.050;2022-10-16T09:37:30;29.40;;;9.50;;
17858;SDS011;35426;30.698;104.050;2022-10-16T09:40:12;31.77;;;10.43;;
17858;SDS011;35426;30.698;104.050;2022-10-16T09:43:02;26.47;;;9.87;;
17858;SDS011;35426;30.698;104.050;2022-10-16T09:45:56;37.57;;;10.07;;
17858;SDS011;35426;30.698;104.050;2022-10-16T09:48:43;36.33;;;10.43;;
17858;SDS011;35426;30.698;104.050;2022-10-16T09:51:29;32.13;;;10.80;;
17858;SDS011;35426;30.698;104.050;2022-10-16T09:54:14;28.37;;;10.13;;
17858;SDS011;35426;30.698;104.050;2022-10-16T09:56:50;30.63;;;10.50;;
17858;SDS011;35426;30.698;104.050;2022-10-16T09:59:28;27.63;;;9.83;;
17858;SDS011;35426;30.698;104.050;2022-10-16T10:02:10;29.07;;;9.50;;
17858;SDS011;35426;30.698;104.050;2022-10-16T10:04:51;28.07;;;9.87;;
17858;SDS011;35426;30.698;104.050;2022-10-16T10:07:30;32.10;;;9.47;;
17858;SDS011;35426;30.698;104.050;2022-10-16T10:10:18;29.80;;;10.50;;
17858;SDS011;35426;30.698;104.050;2022-10-16T10:12:56;27.80;;;9.63;;
17858;SDS011;35426;30.698;104.050;2022-10-16T10:15:33;26.00;;;9.73;;
17858;SDS011;35426;30.698;104.050;2022-10-16T10:18:16;21.97;;;8.90;;
17858;SDS011;35426;30.698;104.050;2022-10-16T10:21:02;30.77;;;9.40;;
17858;SDS011;35426;30.698;104.050;2022-10-16T10:23:38;31.90;;;9.57;;
17858;SDS011;35426;30.698;104.050;2022-10-16T10:26:14;28.53;;;10.00;;
17858;SDS011;35426;30.698;104.050;2022-10-16T10:28:56;30.47;;;9.50;;
17858;SDS011;35426;30.698;104.050;2022-10-16T10:31:42;26.37;;;9.70;;
17858;SDS011;35426;30.698;104.050;2022-10-16T10:34:31;26.40;;;9.77;;
17858;SDS011;35426;30.698;104.050;2022-10-16T10:37:30;32.40;;;10.03;;
17858;SDS011;35426;30.698;104.050;2022-10-16T10:40:20;27.70;;;9.53;;
17858;SDS011;35426;30.698;104.050;2022-10-16T10:43:15;34.20;;;9.93;;
17858;SDS011;35426;30.698;104.050;2022-10-16T10:46:04;33.93;;;10.23;;
17858;SDS011;35426;30.698;104.050;2022-10-16T10:48:47;29.60;;;9.93;;
17858;SDS011;35426;30.698;104.050;2022-10-16T10:51:39;32.47;;;10.60;;
17858;SDS011;35426;30.698;104.050;2022-10-16T10:54:40;31.43;;;10.03;;
17858;SDS011;35426;30.698;104.050;2022-10-16T10:57:25;27.47;;;10.70;;
17858;SDS011;35426;30.698;104.050;2022-10-16T11:00:14;34.63;;;10.17;;
17858;SDS011;35426;30.698;104.050;2022-10-16T11:02:58;33.07;;;10.70;;
17858;SDS011;35426;30.698;104.050;2022-10-16T11:05:45;34.27;;;11.00;;
17858;SDS011;35426;30.698;104.050;2022-10-16T11:08:28;42.93;;;11.67;;
17858;SDS011;35426;30.698;104.050;2022-10-16T11:11:14;40.40;;;11.03;;
17858;SDS011;35426;30.698;104.050;2022-10-16T11:13:55;37.27;;;10.97;;
17858;SDS011;35426;30.698;104.050;2022-10-16T11:16:42;39.07;;;10.57;;
17858;SDS011;35426;30.698;104.050;2022-10-16T11:19:35;27.20;;;10.60;;
17858;SDS011;35426;30.698;104.050;2022-10-16T11:22:17;25.40;;;10.40;;
17858;SDS011;35426;30.698;104.050;2022-10-16T11:24:58;41.83;;;11.17;;
17858;SDS011;35426;30.698;104.050;2022-10-16T11:27:47;31.40;;;10.87;;
17858;SDS011;35426;30.698;104.050;2022-10-16T11:30:30;31.83;;;10.40;;
17858;SDS011;35426;30.698;104.050;2022-10-16T11:33:26;35.60;;;10.30;;
17858;SDS011;35426;30.698;104.050;2022-10-16T11:36:25;32.27;;;10.53;;
17858;SDS011;35426;30.698;104.050;2022-10-16T11:39:11;31.90;;;11.13;;
17858;SDS011;35426;30.698;104.050;2022-10-16T11:41:53;38.90;;;11.50;;
17858;SDS011;35426;30.698;104.050;2022-10-16T11:44:57;33.77;;;11.23;;
17858;SDS011;35426;30.698;104.050;2022-10-16T11:47:39;36.57;;;10.63;;
17858;SDS011;35426;30.698;104.050;2022-10-16T11:50:36;31.77;;;11.17;;
17858;SDS011;35426;30.698;104.050;2022-10-16T11:53:32;32.03;;;10.63;;
17858;SDS011;35426;30.698;104.050;2022-10-16T11:56:18;29.67;;;11.23;;
17858;SDS011;35426;30.698;104.050;2022-10-16T11:58:57;32.23;;;11.73;;
17858;SDS011;35426;30.698;104.050;2022-10-16T12:01:41;33.87;;;12.10;;
17858;SDS011;35426;30.698;104.050;2022-10-16T12:04:24;31.00;;;11.27;;
17858;SDS011;35426;30.698;104.050;2022-10-16T12:07:05;35.60;;;12.10;;
17858;SDS011;35426;30.698;104.050;2022-10-16T12:09:52;38.07;;;11.77;;
17858;SDS011;35426;30.698;104.050;2022-10-16T12:12:38;32.47;;;10.97;;
17858;SDS011;35426;30.698;104.050;2022-10-16T12:15:22;37.03;;;11.70;;
17858;SDS011;35426;30.698;104.050;2022-10-16T12:18:23;38.20;;;12.03;;
17858;SDS011;35426;30.698;104.050;2022-10-16T12:21:01;41.47;;;12.63;;
17858;SDS011;35426;30.698;104.050;2022-10-16T12:23:50;41.17;;;12.00;;
17858;SDS011;35426;30.698;104.050;2022-10-16T12:26:33;32.93;;;11.27;;
17858;SDS011;35426;30.698;104.050;2022-10-16T12:29:14;38.37;;;12.80;;
17858;SDS011;35426;30.698;104.050;2022-10-16T12:35:20;32.43;;;12.70;;
17858;SDS011;35426;30.698;104.050;2022-10-16T12:38:08;38.47;;;13.37;;
17858;SDS011;35426;30.698;104.050;2022-10-16T12:41:02;34.00;;;11.27;;
17858;SDS011;35426;30.698;104.050;2022-10-16T12:43:44;38.83;;;12.73;;
17858;SDS011;35426;30.698;104.050;2022-10-16T12:46:36;35.30;;;12.13;;
17858;SDS011;35426;30.698;104.050;2022-10-16T12:49:22;37.30;;;13.47;;
17858;SDS011;35426;30.698;104.050;2022-10-16T12:55:18;38.83;;;13.97;;
17858;SDS011;35426;30.698;104.050;2022-10-16T12:58:00;45.57;;;16.37;;
17858;SDS011;35426;30.698;104.050;2022-10-16T13:00:44;39.47;;;14.73;;
17858;SDS011;35426;30.698;104.050;2022-10-16T13:03:37;39.07;;;14.90;;
17858;SDS011;35426;30.698;104.050;2022-10-16T13:06:35;37.50;;;14.17;;
17858;SDS011;35426;30.698;104.050;2022-10-16T13:09:33;49.33;;;15.23;;
17858;SDS011;35426;30.698;104.050;2022-10-16T13:12:27;46.70;;;14.87;;
17858;SDS011;35426;30.698;104.050;2022-10-16T13:15:29;38.33;;;14.93;;
17858;SDS011;35426;30.698;104.050;2022-10-16T13:18:16;42.13;;;14.73;;
17858;SDS011;35426;30.698;104.050;2022-10-16T13:21:14;37.73;;;13.93;;
17858;SDS011;35426;30.698;104.050;2022-10-16T13:24:08;35.93;;;13.83;;
17858;SDS011;35426;30.698;104.050;2022-10-16T13:26:57;49.63;;;17.77;;
17858;SDS011;35426;30.698;104.050;2022-10-16T13:29:38;56.00;;;20.10;;
17858;SDS011;35426;30.698;104.050;2022-10-16T13:32:15;65.57;;;22.10;;
17858;SDS011;35426;30.698;104.050;2022-10-16T13:34:50;67.80;;;26.67;;
17858;SDS011;35426;30.698;104.050;2022-10-16T13:37:31;60.10;;;21.70;;
17858;SDS011;35426;30.698;104.050;2022-10-16T13:40:12;61.27;;;22.13;;
17858;SDS011;35426;30.698;104.050;2022-10-16T13:43:05;66.20;;;21.70;;
17858;SDS011;35426;30.698;104.050;2022-10-16T13:45:56;61.53;;;22.93;;
17858;SDS011;35426;30.698;104.050;2022-10-16T13:48:34;59.70;;;21.20;;
17858;SDS011;35426;30.698;104.050;2022-10-16T13:51:15;59.23;;;20.47;;
17858;SDS011;35426;30.698;104.050;2022-10-16T13:53:56;50.30;;;20.50;;
17858;SDS011;35426;30.698;104.050;2022-10-16T13:56:38;63.30;;;20.87;;
17858;SDS011;35426;30.698;104.050;2022-10-16T13:59:44;57.10;;;21.20;;
17858;SDS011;35426;30.698;104.050;2022-10-16T14:02:26;66.23;;;23.60;;
17858;SDS011;35426;30.698;104.050;2022-10-16T14:05:08;63.80;;;23.17;;
17858;SDS011;35426;30.698;104.050;2022-10-16T14:07:50;65.77;;;24.13;;
17858;SDS011;35426;30.698;104.050;2022-10-16T14:10:27;78.70;;;28.27;;
17858;SDS011;35426;30.698;104.050;2022-10-16T14:13:13;90.40;;;29.83;;
17858;SDS011;35426;30.698;104.050;2022-10-16T14:15:56;84.90;;;30.70;;
17858;SDS011;35426;30.698;104.050;2022-10-16T14:18:34;80.03;;;27.17;;
17858;SDS011;35426;30.698;104.050;2022-10-16T14:21:29;76.20;;;26.30;;
17858;SDS011;35426;30.698;104.050;2022-10-16T14:24:21;77.17;;;27.57;;
17858;SDS011;35426;30.698;104.050;2022-10-16T14:30:15;74.80;;;21.33;;
17858;SDS011;35426;30.698;104.050;2022-10-16T14:32:56;59.73;;;20.60;;
17858;SDS011;35426;30.698;104.050;2022-10-16T14:35:34;61.30;;;19.03;;
17858;SDS011;35426;30.698;104.050;2022-10-16T14:38:18;59.17;;;19.90;;
17858;SDS011;35426;30.698;104.050;2022-10-16T14:40:57;53.77;;;20.67;;
17858;SDS011;35426;30.698;104.050;2022-10-16T14:43:34;67.27;;;22.40;;
17858;SDS011;35426;30.698;104.050;2022-10-16T14:46:20;75.70;;;23.23;;
17858;SDS011;35426;30.698;104.050;2022-10-16T14:49:20;72.97;;;23.40;;
17858;SDS011;35426;30.698;104.050;2022-10-16T14:52:04;68.93;;;22.87;;
17858;SDS011;35426;30.698;104.050;2022-10-16T14:54:48;59.60;;;20.57;;
17858;SDS011;35426;30.698;104.050;2022-10-16T14:57:29;61.63;;;21.80;;
17858;SDS011;35426;30.698;104.050;2022-10-16T15:00:17;68.23;;;23.67;;
17858;SDS011;35426;30.698;104.050;2022-10-16T15:03:01;73.93;;;24.53;;
17858;SDS011;35426;30.698;104.050;2022-10-16T15:05:43;70.73;;;26.50;;
17858;SDS011;35426;30.698;104.050;2022-10-16T15:08:21;73.63;;;28.67;;
17858;SDS011;35426;30.698;104.050;2022-10-16T15:10:59;73.57;;;28.60;;
17858;SDS011;35426;30.698;104.050;2022-10-16T15:13:41;71.20;;;28.20;;
17858;SDS011;35426;30.698;104.050;2022-10-16T15:16:23;87.30;;;29.73;;
17858;SDS011;35426;30.698;104.050;2022-10-16T15:19:09;84.80;;;30.73;;
17858;SDS011;35426;30.698;104.050;2022-10-16T15:21:48;86.93;;;30.73;;
17858;SDS011;35426;30.698;104.050;2022-10-16T15:24:31;88.27;;;32.53;;
17858;SDS011;35426;30.698;104.050;2022-10-16T15:27:07;82.37;;;31.80;;
17858;SDS011;35426;30.698;104.050;2022-10-16T15:29:48;72.07;;;30.07;;
17858;SDS011;35426;30.698;104.050;2022-10-16T15:32:32;78.90;;;30.70;;
17858;SDS011;35426;30.698;104.050;2022-10-16T15:35:11;75.93;;;31.37;;
17858;SDS011;35426;30.698;104.050;2022-10-16T15:37:50;87.13;;;29.73;;
17858;SDS011;35426;30.698;104.050;2022-10-16T15:40:29;91.27;;;33.73;;
17858;SDS011;35426;30.698;104.050;2022-10-16T15:43:18;96.70;;;36.30;;
17858;SDS011;35426;30.698;104.050;2022-10-16T15:45:59;98.30;;;34.30;;
17858;SDS011;35426;30.698;104.050;2022-10-16T15:48:40;88.03;;;33.33;;
17858;SDS011;35426;30.698;104.050;2022-10-16T15:51:15;87.10;;;30.97;;